Walker, Iowa
Current Conditions -  °F | °C
As of 8:35 PM on Sunday 21 Dec 2014 (Local Time) from KVTI Reporting Station
Overcast Overcast  
Wind Chill: 31°   Ceiling: 1100
Heat Index: 40°   Visibility: 7mi
Dew Point: 36°   Wind: 16mph
Humidity: 86%   Direction: 150°SSE
Pressure: 29.85"   Gusts: NA
Location:  42.29°N, 91.78°W
Report Text: KVTI 220235Z AUTO 15014KT 7SM BKN011 BKN016 OVC045 04/02 A2985 RMK AO2 T00430022
Loading
Personal Weather Stations






























Interactive Weather Map New forecast layout! Learn more

10-Day Weather Forecast

Advertisements
Track Severe Weather on mobile